sensor_id;sensor_type;location;lat;lon;timestamp;pressure;altitude;pressure_sealevel;temperature;humidity
15487;BME280;7845;53.698;10.078;2023-03-23T00:01:15;100097.09;;;13.00;100.00
15487;BME280;7845;53.698;10.078;2023-03-23T00:03:45;100098.84;;;12.99;100.00
15487;BME280;7845;53.698;10.078;2023-03-23T00:06:11;100096.53;;;12.89;100.00
15487;BME280;7845;53.698;10.078;2023-03-23T00:08:43;100093.97;;;12.87;100.00
15487;BME280;7845;53.698;10.078;2023-03-23T00:11:14;100085.38;;;12.82;100.00
15487;BME280;7845;53.698;10.078;2023-03-23T00:13:41;100088.00;;;12.82;100.00
15487;BME280;7845;53.698;10.078;2023-03-23T00:16:08;100083.69;;;12.80;100.00
15487;BME280;7845;53.698;10.078;2023-03-23T00:18:49;100087.09;;;12.83;100.00
15487;BME280;7845;53.698;10.078;2023-03-23T00:21:19;100077.41;;;12.87;100.00
15487;BME280;7845;53.698;10.078;2023-03-23T00:23:45;100076.69;;;12.80;100.00
15487;BME280;7845;53.698;10.078;2023-03-23T00:26:11;100074.00;;;12.83;100.00
15487;BME280;7845;53.698;10.078;2023-03-23T00:28:37;100068.84;;;12.80;100.00
15487;BME280;7845;53.698;10.078;2023-03-23T00:31:06;100063.59;;;12.80;100.00
15487;BME280;7845;53.698;10.078;2023-03-23T00:33:34;100060.22;;;12.76;100.00
15487;BME280;7845;53.698;10.078;2023-03-23T00:36:03;100053.06;;;12.82;100.00
15487;BME280;7845;53.698;10.078;2023-03-23T00:38:29;100038.28;;;12.81;100.00
15487;BME280;7845;53.698;10.078;2023-03-23T00:40:54;100032.03;;;12.85;100.00
15487;BME280;7845;53.698;10.078;2023-03-23T00:43:20;100018.13;;;12.83;100.00
15487;BME280;7845;53.698;10.078;2023-03-23T00:45:45;100024.25;;;12.83;100.00
15487;BME280;7845;53.698;10.078;2023-03-23T00:48:21;100010.28;;;12.83;100.00
15487;BME280;7845;53.698;10.078;2023-03-23T00:50:48;100002.50;;;12.80;100.00
15487;BME280;7845;53.698;10.078;2023-03-23T00:53:14;99998.13;;;12.80;100.00
15487;BME280;7845;53.698;10.078;2023-03-23T00:55:41;99984.09;;;12.83;100.00
15487;BME280;7845;53.698;10.078;2023-03-23T00:58:08;99964.91;;;12.82;100.00
15487;BME280;7845;53.698;10.078;2023-03-23T01:00:34;99960.44;;;12.86;100.00
15487;BME280;7845;53.698;10.078;2023-03-23T01:02:59;99953.44;;;12.86;100.00
15487;BME280;7845;53.698;10.078;2023-03-23T01:05:24;99954.22;;;12.88;100.00
15487;BME280;7845;53.698;10.078;2023-03-23T01:08:00;99943.00;;;12.85;100.00
15487;BME280;7845;53.698;10.078;2023-03-23T01:10:26;99950.75;;;12.88;100.00
15487;BME280;7845;53.698;10.078;2023-03-23T01:12:53;99937.72;;;12.86;100.00
15487;BME280;7845;53.698;10.078;2023-03-23T01:15:25;99932.50;;;12.85;100.00
15487;BME280;7845;53.698;10.078;2023-03-23T01:17:52;99920.25;;;12.87;100.00
15487;BME280;7845;53.698;10.078;2023-03-23T01:20:17;99916.84;;;12.83;100.00
15487;BME280;7845;53.698;10.078;2023-03-23T01:22:43;99911.63;;;12.83;100.00
15487;BME280;7845;53.698;10.078;2023-03-23T01:25:10;99923.00;;;12.82;100.00
15487;BME280;7845;53.698;10.078;2023-03-23T01:27:36;99914.34;;;12.80;100.00
15487;BME280;7845;53.698;10.078;2023-03-23T01:30:04;99909.91;;;12.82;100.00
15487;BME280;7845;53.698;10.078;2023-03-23T01:32:31;99912.50;;;12.84;100.00
15487;BME280;7845;53.698;10.078;2023-03-23T01:34:56;99905.50;;;12.84;100.00
15487;BME280;7845;53.698;10.078;2023-03-23T01:37:22;99904.66;;;12.82;100.00
15487;BME280;7845;53.698;10.078;2023-03-23T01:39:57;99894.19;;;12.82;100.00
15487;BME280;7845;53.698;10.078;2023-03-23T01:42:24;99894.84;;;12.89;100.00
15487;BME280;7845;53.698;10.078;2023-03-23T01:47:16;99880.03;;;12.88;100.00
15487;BME280;7845;53.698;10.078;2023-03-23T01:49:47;99884.38;;;12.89;100.00
15487;BME280;7845;53.698;10.078;2023-03-23T01:52:16;99893.22;;;12.85;100.00
15487;BME280;7845;53.698;10.078;2023-03-23T01:54:46;99900.19;;;12.86;100.00
15487;BME280;7845;53.698;10.078;2023-03-23T01:57:17;99894.28;;;12.79;100.00
15487;BME280;7845;53.698;10.078;2023-03-23T01:59:47;99887.28;;;12.80;100.00
15487;BME280;7845;53.698;10.078;2023-03-23T02:02:15;99878.38;;;12.85;100.00
15487;BME280;7845;53.698;10.078;2023-03-23T02:04:41;99875.91;;;12.81;100.00
15487;BME280;7845;53.698;10.078;2023-03-23T02:07:08;99877.56;;;12.83;100.00
15487;BME280;7845;53.698;10.078;2023-03-23T02:09:34;99874.09;;;12.83;100.00
15487;BME280;7845;53.698;10.078;2023-03-23T02:11:59;99883.63;;;12.85;100.00
15487;BME280;7845;53.698;10.078;2023-03-23T02:14:26;99874.09;;;12.83;100.00
15487;BME280;7845;53.698;10.078;2023-03-23T02:22:22;99874.09;;;12.83;100.00
15487;BME280;7845;53.698;10.078;2023-03-23T02:28:02;99876.69;;;12.84;100.00
15487;BME280;7845;53.698;10.078;2023-03-23T02:33:29;99868.91;;;12.81;100.00
15487;BME280;7845;53.698;10.078;2023-03-23T02:36:02;99880.97;;;12.87;100.00
15487;BME280;7845;53.698;10.078;2023-03-23T02:38:41;99882.56;;;12.91;100.00
15487;BME280;7845;53.698;10.078;2023-03-23T02:41:10;99868.72;;;12.87;100.00
15487;BME280;7845;53.698;10.078;2023-03-23T02:43:43;99872.16;;;12.89;100.00
15487;BME280;7845;53.698;10.078;2023-03-23T02:46:10;99869.66;;;12.85;100.00
15487;BME280;7845;53.698;10.078;2023-03-23T02:48:38;99865.34;;;12.84;100.00
15487;BME280;7845;53.698;10.078;2023-03-23T02:51:06;99865.25;;;12.87;100.00
15487;BME280;7845;53.698;10.078;2023-03-23T02:53:34;99872.06;;;12.92;100.00
15487;BME280;7845;53.698;10.078;2023-03-23T02:56:03;99941.34;;;15.08;100.00
15487;BME280;7845;53.698;10.078;2023-03-23T02:58:31;99940.47;;;15.50;100.00
15487;BME280;7845;53.698;10.078;2023-03-23T03:00:56;99941.94;;;15.58;100.00
15487;BME280;7845;53.698;10.078;2023-03-23T03:03:27;99934.06;;;15.58;100.00
15487;BME280;7845;53.698;10.078;2023-03-23T03:06:11;99916.91;;;15.69;100.00
15487;BME280;7845;53.698;10.078;2023-03-23T03:11:50;99913.28;;;15.92;100.00
15487;BME280;7845;53.698;10.078;2023-03-23T03:14:30;99905.59;;;15.87;100.00
15487;BME280;7845;53.698;10.078;2023-03-23T03:17:02;99897.06;;;16.01;100.00
15487;BME280;7845;53.698;10.078;2023-03-23T03:19:32;99894.03;;;15.91;100.00
15487;BME280;7845;53.698;10.078;2023-03-23T03:22:00;99875.31;;;15.97;100.00
15487;BME280;7845;53.698;10.078;2023-03-23T03:24:28;99861.09;;;16.01;100.00
15487;BME280;7845;53.698;10.078;2023-03-23T03:26:56;99849.91;;;15.96;100.00
15487;BME280;7845;53.698;10.078;2023-03-23T03:29:44;99848.00;;;16.00;100.00
15487;BME280;7845;53.698;10.078;2023-03-23T03:32:16;99827.13;;;15.95;100.00
15487;BME280;7845;53.698;10.078;2023-03-23T03:34:42;99817.56;;;15.94;100.00
15487;BME280;7845;53.698;10.078;2023-03-23T03:37:08;99821.22;;;15.90;100.00
15487;BME280;7845;53.698;10.078;2023-03-23T03:39:36;99824.78;;;15.89;100.00
15487;BME280;7845;53.698;10.078;2023-03-23T03:42:02;99821.72;;;15.80;100.00
15487;BME280;7845;53.698;10.078;2023-03-23T03:44:27;99824.78;;;15.89;100.00
15487;BME280;7845;53.698;10.078;2023-03-23T03:46:53;99816.06;;;16.08;100.00
15487;BME280;7845;53.698;10.078;2023-03-23T03:49:18;99831.84;;;16.08;100.00
15487;BME280;7845;53.698;10.078;2023-03-23T03:51:44;99831.09;;;16.24;100.00
15487;BME280;7845;53.698;10.078;2023-03-23T03:54:10;99822.50;;;16.39;100.00
15487;BME280;7845;53.698;10.078;2023-03-23T03:56:36;99822.53;;;16.19;100.00
15487;BME280;7845;53.698;10.078;2023-03-23T03:59:06;99814.72;;;16.36;100.00
15487;BME280;7845;53.698;10.078;2023-03-23T04:01:33;99806.31;;;16.47;100.00
15487;BME280;7845;53.698;10.078;2023-03-23T04:03:59;99811.25;;;16.36;100.00
15487;BME280;7845;53.698;10.078;2023-03-23T04:06:24;99812.94;;;16.37;100.00
15487;BME280;7845;53.698;10.078;2023-03-23T04:08:53;99807.47;;;16.23;100.00
15487;BME280;7845;53.698;10.078;2023-03-23T04:11:20;99800.75;;;16.34;100.00
15487;BME280;7845;53.698;10.078;2023-03-23T04:13:46;99802.06;;;16.44;100.00
15487;BME280;7845;53.698;10.078;2023-03-23T04:16:11;99799.91;;;16.52;100.00
15487;BME280;7845;53.698;10.078;2023-03-23T04:18:39;99803.81;;;16.44;100.00
15487;BME280;7845;53.698;10.078;2023-03-23T04:21:07;99807.22;;;15.90;100.00
15487;BME280;7845;53.698;10.078;2023-03-23T04:23:35;99808.69;;;15.77;100.00
15487;BME280;7845;53.698;10.078;2023-03-23T04:26:01;99814.38;;;15.86;100.00
15487;BME280;7845;53.698;10.078;2023-03-23T04:28:28;99803.81;;;15.88;100.00
15487;BME280;7845;53.698;10.078;2023-03-23T04:30:55;99815.47;;;15.82;100.00
15487;BME280;7845;53.698;10.078;2023-03-23T04:33:26;99814.91;;;15.94;100.00
15487;BME280;7845;53.698;10.078;2023-03-23T04:35:53;99816.59;;;15.95;100.00
15487;BME280;7845;53.698;10.078;2023-03-23T04:38:19;99809.53;;;15.97;100.00
15487;BME280;7845;53.698;10.078;2023-03-23T04:40:47;99814.78;;;15.97;100.00
15487;BME280;7845;53.698;10.078;2023-03-23T04:43:13;99799.41;;;15.88;100.00
15487;BME280;7845;53.698;10.078;2023-03-23T04:45:40;99800.94;;;15.92;100.00
15487;BME280;7845;53.698;10.078;2023-03-23T04:48:10;99804.59;;;15.90;100.00
15487;BME280;7845;53.698;10.078;2023-03-23T04:50:36;99804.16;;;15.99;100.00
15487;BME280;7845;53.698;10.078;2023-03-23T04:53:03;99798.00;;;16.00;100.00
15487;BME280;7845;53.698;10.078;2023-03-23T04:55:32;99792.91;;;15.95;100.00
15487;BME280;7845;53.698;10.078;2023-03-23T04:58:02;99790.16;;;16.17;100.00
15487;BME280;7845;53.698;10.078;2023-03-23T05:00:27;99785.31;;;16.08;100.00
15487;BME280;7845;53.698;10.078;2023-03-23T05:02:53;99790.59;;;16.08;100.00
15487;BME280;7845;53.698;10.078;2023-03-23T05:05:21;99781.63;;;16.12;100.00
15487;BME280;7845;53.698;10.078;2023-03-23T05:07:46;99776.34;;;15.93;100.00
15487;BME280;7845;53.698;10.078;2023-03-23T05:10:12;99776.53;;;15.89;100.00
15487;BME280;7845;53.698;10.078;2023-03-23T05:12:38;99773.84;;;15.90;100.00
15487;BME280;7845;53.698;10.078;2023-03-23T05:15:05;99779.25;;;15.87;100.00
15487;BME280;7845;53.698;10.078;2023-03-23T05:17:32;99777.41;;;15.89;100.00
15487;BME280;7845;53.698;10.078;2023-03-23T05:20:00;99778.91;;;15.95;100.00
15487;BME280;7845;53.698;10.078;2023-03-23T05:22:29;99771.88;;;15.95;100.00
15487;BME280;7845;53.698;10.078;2023-03-23T05:24:58;99771.38;;;15.87;100.00
15487;BME280;7845;53.698;10.078;2023-03-23T05:27:23;99768.88;;;15.84;100.00
15487;BME280;7845;53.698;10.078;2023-03-23T05:29:48;99767.50;;;15.76;100.00
15487;BME280;7845;53.698;10.078;2023-03-23T05:32:15;99765.75;;;15.76;100.00
15487;BME280;7845;53.698;10.078;2023-03-23T05:34:41;99766.47;;;15.80;100.00
15487;BME280;7845;53.698;10.078;2023-03-23T05:37:09;99766.91;;;16.08;100.00
15487;BME280;7845;53.698;10.078;2023-03-23T05:39:35;99763.16;;;16.31;100.00
15487;BME280;7845;53.698;10.078;2023-03-23T05:42:03;99760.63;;;16.48;100.00
15487;BME280;7845;53.698;10.078;2023-03-23T05:44:29;99751.72;;;16.32;100.00
15487;BME280;7845;53.698;10.078;2023-03-23T05:46:55;99751.00;;;16.47;100.00
15487;BME280;7845;53.698;10.078;2023-03-23T05:49:20;99745.88;;;16.44;100.00
15487;BME280;7845;53.698;10.078;2023-03-23T05:51:46;99738.94;;;16.24;100.00
15487;BME280;7845;53.698;10.078;2023-03-23T05:54:12;99740.84;;;16.21;100.00
15487;BME280;7845;53.698;10.078;2023-03-23T05:56:38;99743.34;;;16.24;100.00
15487;BME280;7845;53.698;10.078;2023-03-23T05:59:03;99744.69;;;16.14;100.00
15487;BME280;7845;53.698;10.078;2023-03-23T06:01:29;99742.41;;;15.87;100.00
15487;BME280;7845;53.698;10.078;2023-03-23T06:03:55;99744.91;;;15.90;100.00
15487;BME280;7845;53.698;10.078;2023-03-23T06:06:25;99742.34;;;16.08;100.00
15487;BME280;7845;53.698;10.078;2023-03-23T06:08:50;99749.19;;;16.12;100.00
15487;BME280;7845;53.698;10.078;2023-03-23T06:11:16;99753.38;;;15.97;100.00
15487;BME280;7845;53.698;10.078;2023-03-23T06:13:42;99755.34;;;15.92;100.00
15487;BME280;7845;53.698;10.078;2023-03-23T06:16:08;99736.44;;;16.02;100.00
15487;BME280;7845;53.698;10.078;2023-03-23T06:18:34;99740.50;;;16.10;100.00
15487;BME280;7845;53.698;10.078;2023-03-23T06:21:02;99722.00;;;15.92;100.00
15487;BME280;7845;53.698;10.078;2023-03-23T06:23:28;99729.03;;;15.73;100.00
15487;BME280;7845;53.698;10.078;2023-03-23T06:25:55;99732.00;;;15.66;100.00
15487;BME280;7845;53.698;10.078;2023-03-23T06:28:22;99728.31;;;15.70;100.00
15487;BME280;7845;53.698;10.078;2023-03-23T06:30:47;99736.38;;;15.85;100.00
15487;BME280;7845;53.698;10.078;2023-03-23T06:33:13;99747.75;;;15.86;100.00
15487;BME280;7845;53.698;10.078;2023-03-23T06:35:38;99742.19;;;15.92;100.00
15487;BME280;7845;53.698;10.078;2023-03-23T06:38:03;99738.78;;;16.09;100.00
15487;BME280;7845;53.698;10.078;2023-03-23T06:40:29;99745.22;;;16.22;100.00
15487;BME280;7845;53.698;10.078;2023-03-23T06:42:57;99732.53;;;16.30;100.00
15487;BME280;7845;53.698;10.078;2023-03-23T06:45:24;99731.69;;;16.46;100.00
15487;BME280;7845;53.698;10.078;2023-03-23T06:47:50;99737.19;;;16.42;100.00
15487;BME280;7845;53.698;10.078;2023-03-23T06:50:16;99735.34;;;16.44;100.00
15487;BME280;7845;53.698;10.078;2023-03-23T06:52:46;99747.25;;;16.70;100.00
15487;BME280;7845;53.698;10.078;2023-03-23T06:55:11;99733.81;;;16.93;100.00
15487;BME280;7845;53.698;10.078;2023-03-23T06:57:38;99723.03;;;16.97;100.00
15487;BME280;7845;53.698;10.078;2023-03-23T07:00:03;99713.09;;;17.02;100.00
15487;BME280;7845;53.698;10.078;2023-03-23T07:02:39;99712.41;;;17.16;100.00
15487;BME280;7845;53.698;10.078;2023-03-23T07:05:06;99714.56;;;17.25;100.00
15487;BME280;7845;53.698;10.078;2023-03-23T07:07:32;99709.09;;;17.45;100.00
15487;BME280;7845;53.698;10.078;2023-03-23T07:09:57;99699.63;;;17.41;100.00
15487;BME280;7845;53.698;10.078;2023-03-23T07:12:23;99708.38;;;17.42;100.00
15487;BME280;7845;53.698;10.078;2023-03-23T07:14:49;99700.38;;;17.60;100.00
15487;BME280;7845;53.698;10.078;2023-03-23T07:17:14;99690.94;;;17.39;100.00
15487;BME280;7845;53.698;10.078;2023-03-23T07:19:40;99696.13;;;17.58;100.00
15487;BME280;7845;53.698;10.078;2023-03-23T07:22:06;99696.91;;;17.60;100.00
15487;BME280;7845;53.698;10.078;2023-03-23T07:24:33;99696.34;;;17.53;100.00
15487;BME280;7845;53.698;10.078;2023-03-23T07:26:58;99680.13;;;17.61;100.00
15487;BME280;7845;53.698;10.078;2023-03-23T07:29:24;99691.56;;;17.77;100.00
15487;BME280;7845;53.698;10.078;2023-03-23T07:31:49;99689.06;;;17.74;100.00
15487;BME280;7845;53.698;10.078;2023-03-23T07:34:14;99695.22;;;17.59;100.00
15487;BME280;7845;53.698;10.078;2023-03-23T07:36:40;99696.50;;;17.50;100.00
15487;BME280;7845;53.698;10.078;2023-03-23T07:39:05;99691.53;;;17.44;100.00
15487;BME280;7845;53.698;10.078;2023-03-23T07:41:32;99698.31;;;17.33;100.00
15487;BME280;7845;53.698;10.078;2023-03-23T07:43:57;99725.53;;;17.50;100.00
15487;BME280;7845;53.698;10.078;2023-03-23T07:46:23;99722.06;;;17.50;100.00
15487;BME280;7845;53.698;10.078;2023-03-23T07:48:48;99731.06;;;17.46;100.00
15487;BME280;7845;53.698;10.078;2023-03-23T07:51:15;99740.31;;;17.54;100.00
15487;BME280;7845;53.698;10.078;2023-03-23T07:53:42;99755.34;;;17.35;100.00
15487;BME280;7845;53.698;10.078;2023-03-23T07:56:10;99759.16;;;17.30;100.00
15487;BME280;7845;53.698;10.078;2023-03-23T07:58:36;99759.72;;;17.02;100.00
15487;BME280;7845;53.698;10.078;2023-03-23T08:01:02;99766.94;;;16.98;100.00
15487;BME280;7845;53.698;10.078;2023-03-23T08:03:27;99772.88;;;16.85;100.00
15487;BME280;7845;53.698;10.078;2023-03-23T08:05:53;99770.16;;;16.69;100.00
15487;BME280;7845;53.698;10.078;2023-03-23T08:08:18;99777.25;;;16.67;100.00
15487;BME280;7845;53.698;10.078;2023-03-23T08:10:44;99775.13;;;16.38;100.00
15487;BME280;7845;53.698;10.078;2023-03-23T08:13:09;99782.78;;;16.07;100.00
15487;BME280;7845;53.698;10.078;2023-03-23T08:15:35;99775.34;;;15.96;100.00
15487;BME280;7845;53.698;10.078;2023-03-23T08:18:03;99785.28;;;16.10;100.00
15487;BME280;7845;53.698;10.078;2023-03-23T08:20:30;99773.06;;;16.07;100.00
15487;BME280;7845;53.698;10.078;2023-03-23T08:22:56;99775.13;;;16.19;100.00
15487;BME280;7845;53.698;10.078;2023-03-23T08:25:23;99769.94;;;15.99;100.00
15487;BME280;7845;53.698;10.078;2023-03-23T08:27:49;99760.56;;;16.12;100.00
15487;BME280;7845;53.698;10.078;2023-03-23T08:30:17;99758.28;;;16.23;100.00
15487;BME280;7845;53.698;10.078;2023-03-23T08:32:44;99761.97;;;16.19;100.00
15487;BME280;7845;53.698;10.078;2023-03-23T08:35:10;99758.84;;;16.30;100.00
15487;BME280;7845;53.698;10.078;2023-03-23T08:37:36;99753.91;;;16.41;100.00
15487;BME280;7845;53.698;10.078;2023-03-23T08:40:03;99759.91;;;16.44;100.00
15487;BME280;7845;53.698;10.078;2023-03-23T08:42:38;99739.31;;;16.52;100.00
15487;BME280;7845;53.698;10.078;2023-03-23T08:45:10;99743.19;;;16.81;100.00
15487;BME280;7845;53.698;10.078;2023-03-23T08:47:36;99746.03;;;16.94;100.00
15487;BME280;7845;53.698;10.078;2023-03-23T08:50:03;99739.94;;;17.10;100.00
15487;BME280;7845;53.698;10.078;2023-03-23T08:52:29;99744.59;;;17.23;100.00
15487;BME280;7845;53.698;10.078;2023-03-23T08:54:54;99745.75;;;17.17;100.00
15487;BME280;7845;53.698;10.078;2023-03-23T08:57:19;99749.25;;;17.50;100.00
15487;BME280;7845;53.698;10.078;2023-03-23T08:59:45;99744.41;;;17.60;100.00
15487;BME280;7845;53.698;10.078;2023-03-23T09:02:12;99741.38;;;17.67;100.00
15487;BME280;7845;53.698;10.078;2023-03-23T09:04:39;99738.03;;;17.64;100.00
15487;BME280;7845;53.698;10.078;2023-03-23T09:07:10;99747.34;;;17.71;100.00
15487;BME280;7845;53.698;10.078;2023-03-23T09:09:36;99751.19;;;17.81;100.00
15487;BME280;7845;53.698;10.078;2023-03-23T09:12:03;99756.13;;;17.87;100.00
15487;BME280;7845;53.698;10.078;2023-03-23T09:14:31;99754.47;;;17.52;100.00
15487;BME280;7845;53.698;10.078;2023-03-23T09:16:56;99757.03;;;17.53;100.00
15487;BME280;7845;53.698;10.078;2023-03-23T09:19:22;99768.25;;;17.58;100.00
15487;BME280;7845;53.698;10.078;2023-03-23T09:21:47;99757.59;;;17.43;100.00
15487;BME280;7845;53.698;10.078;2023-03-23T09:24:14;99760.06;;;17.46;100.00
15487;BME280;7845;53.698;10.078;2023-03-23T09:26:40;99767.66;;;17.52;100.00
15487;BME280;7845;53.698;10.078;2023-03-23T09:29:06;99770.72;;;17.61;100.00
15487;BME280;7845;53.698;10.078;2023-03-23T09:31:33;99765.59;;;17.91;100.00
15487;BME280;7845;53.698;10.078;2023-03-23T09:33:58;99773.25;;;17.96;100.00
15487;BME280;7845;53.698;10.078;2023-03-23T09:36:25;99767.22;;;17.61;100.00
15487;BME280;7845;53.698;10.078;2023-03-23T09:38:51;99761.03;;;17.78;100.00
15487;BME280;7845;53.698;10.078;2023-03-23T09:49:26;99771.91;;;18.04;100.00
15487;BME280;7845;53.698;10.078;2023-03-23T09:51:57;99785.13;;;18.20;100.00
15487;BME280;7845;53.698;10.078;2023-03-23T09:54:29;99780.28;;;18.28;100.00
15487;BME280;7845;53.698;10.078;2023-03-23T09:56:57;99783.75;;;18.13;100.00
15487;BME280;7845;53.698;10.078;2023-03-23T09:59:31;99781.59;;;18.52;100.00
15487;BME280;7845;53.698;10.078;2023-03-23T10:02:30;99785.84;;;18.39;100.00
15487;BME280;7845;53.698;10.078;2023-03-23T10:05:20;99782.59;;;18.81;100.00
15487;BME280;7845;53.698;10.078;2023-03-23T10:07:48;99781.84;;;19.09;100.00
15487;BME280;7845;53.698;10.078;2023-03-23T10:10:13;99784.59;;;19.07;100.00
15487;BME280;7845;53.698;10.078;2023-03-23T10:12:49;99782.66;;;19.25;100.00
15487;BME280;7845;53.698;10.078;2023-03-23T10:15:29;99782.53;;;19.56;100.00
15487;BME280;7845;53.698;10.078;2023-03-23T10:18:14;99777.28;;;19.99;100.00
15487;BME280;7845;53.698;10.078;2023-03-23T10:20:53;99769.25;;;20.00;100.00
15487;BME280;7845;53.698;10.078;2023-03-23T10:23:32;99777.19;;;20.28;100.00
15487;BME280;7845;53.698;10.078;2023-03-23T10:26:33;99761.16;;;20.44;100.00
15487;BME280;7845;53.698;10.078;2023-03-23T10:31:37;99779.50;;;20.47;100.00
15487;BME280;7845;53.698;10.078;2023-03-23T10:34:11;99777.78;;;20.60;100.00
15487;BME280;7845;53.698;10.078;2023-03-23T10:36:50;99771.69;;;20.72;100.00
15487;BME280;7845;53.698;10.078;2023-03-23T10:39:20;99766.97;;;21.17;100.00
15487;BME280;7845;53.698;10.078;2023-03-23T10:41:47;99763.88;;;21.10;100.00
15487;BME280;7845;53.698;10.078;2023-03-23T10:44:24;99769.75;;;21.01;100.00
15487;BME280;7845;53.698;10.078;2023-03-23T10:46:57;99777.38;;;20.93;100.00
15487;BME280;7845;53.698;10.078;2023-03-23T10:49:26;99785.69;;;20.74;100.00
15487;BME280;7845;53.698;10.078;2023-03-23T10:55:12;99803.13;;;20.78;100.00
15487;BME280;7845;53.698;10.078;2023-03-23T10:57:43;99810.28;;;20.64;100.00
15487;BME280;7845;53.698;10.078;2023-03-23T11:00:21;99824.88;;;20.28;100.00
15487;BME280;7845;53.698;10.078;2023-03-23T11:03:07;99823.66;;;20.48;100.00
15487;BME280;7845;53.698;10.078;2023-03-23T11:05:51;99809.03;;;20.69;100.00
15487;BME280;7845;53.698;10.078;2023-03-23T11:08:20;99804.84;;;20.65;100.00
15487;BME280;7845;53.698;10.078;2023-03-23T11:10:50;99830.19;;;20.42;100.00
15487;BME280;7845;53.698;10.078;2023-03-23T11:13:19;99818.44;;;20.47;100.00
15487;BME280;7845;53.698;10.078;2023-03-23T11:15:46;99821.66;;;20.52;100.00
15487;BME280;7845;53.698;10.078;2023-03-23T11:20:41;99837.28;;;20.42;100.00
15487;BME280;7845;53.698;10.078;2023-03-23T11:23:21;99844.31;;;20.29;100.00
15487;BME280;7845;53.698;10.078;2023-03-23T11:26:09;99848.84;;;20.27;100.00
15487;BME280;7845;53.698;10.078;2023-03-23T11:28:47;99850.31;;;20.59;100.00
15487;BME280;7845;53.698;10.078;2023-03-23T11:31:16;99837.19;;;20.15;100.00
15487;BME280;7845;53.698;10.078;2023-03-23T11:33:57;99853.84;;;20.31;100.00
15487;BME280;7845;53.698;10.078;2023-03-23T11:36:32;99840.19;;;19.81;100.00
15487;BME280;7845;53.698;10.078;2023-03-23T11:38:59;99827.81;;;20.10;100.00
15487;BME280;7845;53.698;10.078;2023-03-23T11:41:32;99832.06;;;20.40;100.00
15487;BME280;7845;53.698;10.078;2023-03-23T11:44:08;99831.53;;;20.76;100.00
15487;BME280;7845;53.698;10.078;2023-03-23T11:46:42;99827.69;;;20.94;100.00
15487;BME280;7845;53.698;10.078;2023-03-23T11:49:20;99815.97;;;20.84;97.51
15487;BME280;7845;53.698;10.078;2023-03-23T11:51:54;99808.63;;;20.61;100.00
15487;BME280;7845;53.698;10.078;2023-03-23T11:54:46;99813.34;;;20.84;99.30
15487;BME280;7845;53.698;10.078;2023-03-23T11:57:14;99789.66;;;20.94;100.00
15487;BME280;7845;53.698;10.078;2023-03-23T11:59:41;99790.44;;;20.69;94.49
15487;BME280;7845;53.698;10.078;2023-03-23T12:05:32;99827.19;;;20.75;94.18
15487;BME280;7845;53.698;10.078;2023-03-23T12:11:05;99864.56;;;20.30;94.06
15487;BME280;7845;53.698;10.078;2023-03-23T12:13:56;99865.44;;;20.30;93.94
15487;BME280;7845;53.698;10.078;2023-03-23T12:19:33;99839.44;;;20.50;94.04
15487;BME280;7845;53.698;10.078;2023-03-23T12:27:39;99828.94;;;20.48;93.54
15487;BME280;7845;53.698;10.078;2023-03-23T12:38:12;99858.50;;;20.42;100.00
15487;BME280;7845;53.698;10.078;2023-03-23T12:40:44;99863.41;;;20.48;100.00
15487;BME280;7845;53.698;10.078;2023-03-23T12:49:14;99844.31;;;21.37;100.00
15487;BME280;7845;53.698;10.078;2023-03-23T12:51:48;99839.91;;;21.24;100.00
15487;BME280;7845;53.698;10.078;2023-03-23T12:56:52;99837.88;;;20.74;100.00
15487;BME280;7845;53.698;10.078;2023-03-23T12:59:38;99842.44;;;21.13;100.00
15487;BME280;7845;53.698;10.078;2023-03-23T13:02:13;99839.91;;;21.11;100.00
15487;BME280;7845;53.698;10.078;2023-03-23T13:04:45;99837.81;;;21.41;100.00
15487;BME280;7845;53.698;10.078;2023-03-23T13:07:16;99836.56;;;21.34;99.28
15487;BME280;7845;53.698;10.078;2023-03-23T13:09:57;99843.38;;;21.38;100.00
15487;BME280;7845;53.698;10.078;2023-03-23T13:12:25;99845.06;;;20.86;100.00
15487;BME280;7845;53.698;10.078;2023-03-23T13:15:07;99853.91;;;20.72;100.00
15487;BME280;7845;53.698;10.078;2023-03-23T13:17:58;99868.41;;;20.53;100.00
15487;BME280;7845;53.698;10.078;2023-03-23T13:23:23;99896.22;;;20.17;100.00
15487;BME280;7845;53.698;10.078;2023-03-23T13:28:28;99874.69;;;20.92;100.00
15487;BME280;7845;53.698;10.078;2023-03-23T13:33:36;99856.19;;;21.05;100.00
15487;BME280;7845;53.698;10.078;2023-03-23T13:36:10;99878.22;;;20.79;100.00
15487;BME280;7845;53.698;10.078;2023-03-23T13:38:36;99866.34;;;20.58;100.00
15487;BME280;7845;53.698;10.078;2023-03-23T13:41:08;99862.19;;;20.25;100.00
15487;BME280;7845;53.698;10.078;2023-03-23T13:43:35;99878.88;;;19.83;100.00
15487;BME280;7845;53.698;10.078;2023-03-23T13:54:14;99994.81;;;16.93;100.00
15487;BME280;7845;53.698;10.078;2023-03-23T13:57:01;99986.09;;;17.09;100.00
15487;BME280;7845;53.698;10.078;2023-03-23T13:59:45;100007.53;;;16.65;100.00
15487;BME280;7845;53.698;10.078;2023-03-23T14:02:37;100011.06;;;16.43;100.00
15487;BME280;7845;53.698;10.078;2023-03-23T14:08:01;99971.28;;;16.49;100.00
15487;BME280;7845;53.698;10.078;2023-03-23T14:13:23;99968.16;;;16.99;100.00
15487;BME280;7845;53.698;10.078;2023-03-23T14:16:01;100006.19;;;17.12;100.00
15487;BME280;7845;53.698;10.078;2023-03-23T14:18:35;99992.94;;;16.95;100.00
15487;BME280;7845;53.698;10.078;2023-03-23T14:21:01;99980.28;;;17.57;100.00
15487;BME280;7845;53.698;10.078;2023-03-23T14:23:27;99977.84;;;17.89;100.00
15487;BME280;7845;53.698;10.078;2023-03-23T14:26:01;99987.00;;;17.99;100.00
15487;BME280;7845;53.698;10.078;2023-03-23T14:28:37;99967.41;;;18.20;100.00